East Watertown, Massachusetts
Current Conditions -  °F | °C
As of 4:00 AM on Thursday 23 Oct 2014 (Local Time) from KBED Reporting Station
Moderate Rain Moderate Rain  
Wind Chill: 41°   Ceiling: 2500
Heat Index: 47°   Visibility: 3mi
Dew Point: 47°   Wind: 13mph
Humidity: 100%   Direction: 360°N
Pressure: 29.73"   Gusts: 24mph
Location:  42.3702°N, 71.1777°W
Report Text: KBED 230800Z AUTO 36011G21KT 3SM RA BR FEW008 SCT012 OVC025 08/08 A2973 RMK AO2 P0001 T00830083 TSNO
Loading
Personal Weather Stations






























Interactive Weather Map
Tropical Storm Tracking
New forecast layout! Learn more

10-Day Weather Forecast

Advertisements
Track Severe Weather on mobile